createdAt,value
2018-09-05T00:00:07.741Z,37.00
2018-09-05T00:01:07.784Z,38.00
2018-09-05T00:02:07.821Z,43.50
2018-09-05T00:03:07.864Z,36.00
2018-09-05T00:04:07.905Z,41.30
2018-09-05T00:05:07.946Z,36.80
2018-09-05T00:06:07.986Z,36.20
2018-09-05T00:07:08.028Z,41.20
2018-09-05T00:08:08.068Z,39.10
2018-09-05T00:09:08.107Z,37.60
2018-09-05T00:10:08.147Z,38.80
2018-09-05T00:11:08.189Z,40.50
2018-09-05T00:12:08.231Z,41.00
2018-09-05T00:13:08.271Z,45.30
2018-09-05T00:14:08.348Z,41.90
2018-09-05T00:15:08.352Z,40.10
2018-09-05T00:16:08.393Z,41.40
2018-09-05T00:17:08.443Z,41.30
2018-09-05T00:18:08.473Z,40.20
2018-09-05T00:19:08.515Z,42.30
2018-09-05T00:20:08.555Z,41.10
2018-09-05T00:21:08.596Z,40.30
2018-09-05T00:22:08.636Z,41.80
2018-09-05T00:23:08.675Z,40.40
2018-09-05T00:24:08.764Z,39.10
2018-09-05T00:25:08.757Z,40.70
2018-09-05T00:26:08.797Z,38.20
2018-09-05T00:27:08.839Z,38.80
2018-09-05T00:28:08.880Z,39.40
2018-09-05T00:29:08.920Z,39.30
2018-09-05T00:30:08.964Z,40.70
2018-09-05T00:31:09.001Z,44.70
2018-09-05T00:32:09.041Z,41.50
2018-09-05T00:33:09.083Z,38.10
2018-09-05T00:34:09.123Z,43.10
2018-09-05T00:35:09.167Z,40.80
2018-09-05T00:36:09.202Z,40.10
2018-09-05T00:37:09.245Z,38.50
2018-09-05T00:38:09.283Z,38.90
2018-09-05T00:39:09.325Z,38.80
2018-09-05T00:40:09.365Z,40.40
2018-09-05T00:41:09.405Z,36.60
2018-09-05T00:42:09.447Z,36.40
2018-09-05T00:43:09.486Z,39.90
2018-09-05T00:44:09.528Z,38.20
2018-09-05T00:45:09.572Z,39.40
2018-09-05T00:46:09.619Z,37.10
2018-09-05T00:47:09.649Z,41.40
2018-09-05T00:48:09.690Z,45.00
2018-09-05T00:49:09.735Z,41.50
2018-09-05T00:50:09.771Z,41.20
2018-09-05T00:51:09.811Z,41.80
2018-09-05T00:52:09.851Z,41.30
2018-09-05T00:53:09.899Z,40.70
2018-09-05T00:54:09.932Z,41.40
2018-09-05T00:55:10.008Z,41.00
2018-09-05T00:56:10.013Z,41.90
2018-09-05T00:57:10.053Z,41.20
2018-09-05T00:58:10.093Z,41.40
2018-09-05T00:59:10.134Z,37.40
2018-09-05T01:00:10.176Z,41.00
2018-09-05T01:01:10.218Z,42.70
2018-09-05T01:02:10.257Z,44.60
2018-09-05T01:03:10.296Z,43.70
2018-09-05T01:04:10.343Z,41.90
2018-09-05T01:05:10.375Z,42.30
2018-09-05T01:06:10.469Z,44.20
2018-09-05T01:07:10.457Z,39.30
2018-09-05T01:08:10.502Z,41.20
2018-09-05T01:09:10.539Z,39.10
2018-09-05T01:10:10.596Z,39.20
2018-09-05T01:11:10.619Z,39.20
2018-09-05T01:12:10.662Z,39.90
2018-09-05T01:13:10.701Z,39.40
2018-09-05T01:14:10.740Z,39.50
2018-09-05T01:15:10.782Z,45.20
2018-09-05T01:16:10.822Z,41.10
2018-09-05T01:17:10.861Z,44.70
2018-09-05T01:18:10.911Z,43.10
2018-09-05T01:19:10.942Z,47.80
2018-09-05T01:20:11.083Z,41.20
2018-09-05T01:21:11.025Z,43.40
2018-09-05T01:22:11.063Z,38.60
2018-09-05T01:23:11.104Z,39.30
2018-09-05T01:24:11.147Z,39.50
2018-09-05T01:25:11.191Z,40.00
2018-09-05T01:26:11.224Z,38.80
2018-09-05T01:27:11.265Z,40.20
2018-09-05T01:28:11.312Z,39.40
2018-09-05T01:29:11.346Z,40.90
2018-09-05T01:30:11.385Z,38.90
2018-09-05T01:31:11.427Z,36.10
2018-09-05T01:32:11.516Z,39.00
2018-09-05T01:33:11.507Z,41.20
2018-09-05T01:34:11.547Z,37.20
2018-09-05T01:35:11.587Z,39.30
2018-09-05T01:36:11.628Z,40.20
2018-09-05T01:37:11.682Z,39.50
2018-09-05T01:38:11.707Z,53.90
2018-09-05T01:39:11.750Z,51.20
2018-09-05T01:40:11.795Z,45.90
2018-09-05T01:41:11.829Z,39.80
2018-09-05T01:42:11.869Z,34.00
2018-09-05T01:43:11.911Z,34.60
2018-09-05T01:44:11.960Z,35.80
2018-09-05T01:45:11.990Z,37.30
2018-09-05T01:46:12.034Z,44.30
2018-09-05T01:47:12.071Z,47.10
2018-09-05T01:48:12.116Z,42.60
2018-09-05T01:49:12.153Z,42.90
2018-09-05T01:50:12.192Z,46.70
2018-09-05T01:51:12.232Z,47.60
2018-09-05T01:52:12.272Z,47.20
2018-09-05T01:53:12.315Z,50.10
2018-09-05T01:54:12.352Z,77.30
2018-09-05T01:55:12.391Z,66.80
2018-09-05T01:56:12.434Z,55.30
2018-09-05T01:57:12.474Z,66.00
2018-09-05T01:58:12.514Z,62.60
2018-09-05T01:59:12.554Z,61.10
2018-09-05T02:00:12.595Z,56.30
2018-09-05T02:01:12.640Z,52.30
2018-09-05T02:02:12.675Z,56.80
2018-09-05T02:03:12.715Z,56.50
2018-09-05T02:04:12.757Z,43.40
2018-09-05T02:05:12.796Z,51.00
2018-09-05T02:06:12.835Z,49.20
2018-09-05T02:07:12.877Z,48.50
2018-09-05T02:08:12.916Z,44.50
2018-09-05T02:09:12.962Z,53.00
2018-09-05T02:10:12.998Z,41.30
2018-09-05T02:11:13.045Z,51.80
2018-09-05T02:12:13.079Z,43.90
2018-09-05T02:13:13.120Z,41.60
2018-09-05T02:14:13.160Z,37.50
2018-09-05T02:15:13.198Z,39.10
2018-09-05T02:16:13.240Z,42.60
2018-09-05T02:17:13.282Z,35.80
2018-09-05T02:18:13.321Z,39.80
2018-09-05T02:19:13.361Z,41.00
2018-09-05T02:20:13.408Z,39.90
2018-09-05T02:21:13.441Z,42.00
2018-09-05T02:22:13.488Z,43.00
2018-09-05T02:23:13.529Z,40.10
2018-09-05T02:24:13.563Z,39.30
2018-09-05T02:25:13.601Z,35.90
2018-09-05T02:26:13.642Z,33.30
2018-09-05T02:27:13.682Z,34.80
2018-09-05T02:28:13.723Z,36.10
2018-09-05T02:29:13.770Z,37.90
2018-09-05T02:30:13.802Z,37.10
2018-09-05T02:31:13.845Z,37.60
2018-09-05T02:32:13.892Z,38.10
2018-09-05T02:33:13.927Z,37.60
2018-09-05T02:34:13.965Z,34.30
2018-09-05T02:35:14.004Z,36.80
2018-09-05T02:36:14.046Z,41.90
2018-09-05T02:37:14.085Z,42.00
2018-09-05T02:38:14.124Z,41.30
2018-09-05T02:39:14.164Z,46.10
2018-09-05T02:40:14.231Z,40.70
2018-09-05T02:41:14.247Z,46.60
2018-09-05T02:42:14.286Z,44.30
2018-09-05T02:43:14.327Z,44.20
2018-09-05T02:44:14.366Z,52.40
2018-09-05T02:45:14.409Z,58.90
2018-09-05T02:46:14.448Z,63.90
2018-09-05T02:47:14.538Z,99.80
2018-09-05T02:48:14.531Z,66.10
2018-09-05T02:49:14.570Z,70.70
2018-09-05T02:50:14.607Z,108.60
2018-09-05T02:51:14.647Z,124.20
2018-09-05T02:52:14.695Z,189.70
2018-09-05T02:53:14.728Z,169.70
2018-09-05T02:54:14.817Z,118.90
2018-09-05T02:55:14.807Z,172.30
2018-09-05T02:56:14.850Z,187.60
2018-09-05T02:57:14.889Z,252.40
2018-09-05T02:58:14.928Z,240.20
2018-09-05T02:59:14.967Z,119.80
2018-09-05T03:00:15.008Z,166.20
2018-09-05T03:01:15.051Z,128.10
2018-09-05T03:02:15.089Z,90.00
2018-09-05T03:03:15.129Z,183.20
2018-09-05T03:04:15.168Z,171.60
2018-09-05T03:05:15.210Z,103.80
2018-09-05T03:06:15.255Z,166.40
2018-09-05T03:07:15.289Z,170.80
2018-09-05T03:08:15.333Z,172.10
2018-09-05T03:09:15.450Z,256.10
2018-09-05T03:10:15.423Z,145.30
2018-09-05T03:11:15.449Z,165.80
2018-09-05T03:12:15.491Z,148.30
2018-09-05T03:13:15.535Z,170.30
2018-09-05T03:14:15.574Z,111.40
2018-09-05T03:15:15.610Z,174.40
2018-09-05T03:16:15.653Z,87.40
2018-09-05T03:17:15.693Z,177.00
2018-09-05T03:18:15.731Z,90.30
2018-09-05T03:19:15.772Z,90.30
2018-09-05T03:20:15.813Z,83.50
2018-09-05T03:21:15.852Z,116.00
2018-09-05T03:22:15.891Z,116.30
2018-09-05T03:23:15.932Z,87.50
2018-09-05T03:24:15.971Z,167.70
2018-09-05T03:25:16.017Z,101.00
2018-09-05T03:26:16.056Z,156.10
2018-09-05T03:27:16.096Z,160.70
2018-09-05T03:28:16.134Z,99.60
2018-09-05T03:29:16.173Z,85.70
2018-09-05T03:30:16.214Z,168.30
2018-09-05T03:31:16.255Z,162.90
2018-09-05T03:32:16.393Z,168.80
2018-09-05T03:33:16.335Z,114.60
2018-09-05T03:34:16.385Z,87.60
2018-09-05T03:35:16.414Z,143.70
2018-09-05T03:36:16.455Z,139.10
2018-09-05T03:37:16.496Z,82.10
2018-09-05T03:38:16.533Z,102.00
2018-09-05T03:39:16.575Z,71.70
2018-09-05T03:40:16.617Z,82.90
2018-09-05T03:41:16.665Z,103.80
2018-09-05T03:42:16.697Z,121.20
2018-09-05T03:43:16.740Z,123.30
2018-09-05T03:44:16.777Z,103.10
2018-09-05T03:45:16.818Z,94.20
2018-09-05T03:46:16.857Z,76.20
2018-09-05T03:47:16.899Z,69.60
2018-09-05T03:48:16.938Z,76.10
2018-09-05T03:49:16.977Z,63.20
2018-09-05T03:50:17.018Z,67.00
2018-09-05T03:51:17.058Z,57.60
2018-09-05T03:52:17.097Z,57.30
2018-09-05T03:53:17.139Z,74.10
2018-09-05T03:54:17.176Z,68.80
2018-09-05T03:55:17.224Z,74.40
2018-09-05T03:56:17.256Z,91.30
2018-09-05T03:57:17.296Z,79.50
2018-09-05T03:58:17.336Z,78.40
2018-09-05T03:59:17.378Z,82.70
2018-09-05T04:00:17.418Z,59.20
2018-09-05T04:01:17.465Z,53.90
2018-09-05T04:02:17.502Z,57.50
2018-09-05T04:03:17.545Z,79.60
2018-09-05T04:04:17.578Z,62.00
2018-09-05T04:05:17.617Z,64.00
2018-09-05T04:06:17.666Z,116.80
2018-09-05T04:07:17.703Z,94.90
2018-09-05T04:08:17.739Z,131.60
2018-09-05T04:09:17.778Z,200.10
2018-09-05T04:10:17.818Z,115.00
2018-09-05T04:11:17.857Z,213.30
2018-09-05T04:12:17.933Z,174.20
2018-09-05T04:13:17.941Z,141.90
2018-09-05T04:14:17.987Z,132.50
2018-09-05T04:15:18.024Z,102.10
2018-09-05T04:16:18.066Z,114.00
2018-09-05T04:17:18.099Z,145.20
2018-09-05T04:18:18.142Z,114.20
2018-09-05T04:19:18.181Z,176.70
2018-09-05T04:20:18.222Z,225.60
2018-09-05T04:21:18.259Z,132.10
2018-09-05T04:22:18.297Z,195.10
2018-09-05T04:23:18.340Z,155.50
2018-09-05T04:24:18.379Z,119.40
2018-09-05T04:25:18.418Z,94.60
2018-09-05T04:26:18.461Z,86.80
2018-09-05T04:27:18.498Z,198.70
2018-09-05T04:28:18.538Z,162.50
2018-09-05T04:29:18.626Z,201.40
2018-09-05T04:30:18.678Z,152.20
2018-09-05T04:31:18.665Z,173.00
2018-09-05T04:32:18.701Z,260.30
2018-09-05T04:33:18.740Z,168.90
2018-09-05T04:34:18.780Z,121.30
2018-09-05T04:35:18.818Z,169.60
2018-09-05T04:36:18.860Z,119.00
2018-09-05T04:37:18.900Z,124.80
2018-09-05T04:38:18.939Z,108.10
2018-09-05T04:39:18.979Z,183.80
2018-09-05T04:40:19.024Z,103.20
2018-09-05T04:41:19.059Z,119.80
2018-09-05T04:42:19.100Z,103.60
2018-09-05T04:43:19.140Z,128.30
2018-09-05T04:44:19.182Z,130.30
2018-09-05T04:45:19.238Z,157.60
2018-09-05T04:46:19.259Z,154.10
2018-09-05T04:47:19.299Z,139.90
2018-09-05T04:48:19.339Z,142.90
2018-09-05T04:49:19.380Z,164.20
2018-09-05T04:50:19.420Z,117.00
2018-09-05T04:51:19.468Z,150.80
2018-09-05T04:52:19.498Z,140.90
2018-09-05T04:53:19.541Z,178.40
2018-09-05T04:54:19.578Z,150.90
2018-09-05T04:55:19.622Z,157.80
2018-09-05T04:56:19.660Z,109.40
2018-09-05T04:57:19.701Z,112.90
2018-09-05T04:58:19.745Z,113.10
2018-09-05T04:59:19.779Z,110.10
2018-09-05T05:00:19.819Z,108.90
2018-09-05T05:01:19.859Z,162.80
2018-09-05T05:02:19.898Z,131.00
2018-09-05T05:03:19.938Z,199.90
2018-09-05T05:04:19.979Z,147.90
2018-09-05T05:05:20.025Z,182.80
2018-09-05T05:06:20.059Z,137.10
2018-09-05T05:07:20.100Z,192.60
2018-09-05T05:08:20.191Z,101.00
2018-09-05T05:09:20.181Z,113.60
2018-09-05T05:10:20.219Z,124.60
2018-09-05T05:11:20.259Z,132.70
2018-09-05T05:12:20.301Z,114.60
2018-09-05T05:13:20.340Z,129.70
2018-09-05T05:14:20.381Z,117.90
2018-09-05T05:15:20.521Z,164.90
2018-09-05T05:16:20.461Z,148.30
2018-09-05T05:17:20.503Z,237.90
2018-09-05T05:18:20.541Z,156.20
2018-09-05T05:19:20.586Z,136.90
2018-09-05T05:20:20.621Z,130.00
2018-09-05T05:21:20.663Z,90.50
2018-09-05T05:22:20.701Z,73.80
2018-09-05T05:23:20.743Z,115.30
2018-09-05T05:24:20.791Z,151.30
2018-09-05T05:25:20.822Z,127.40
2018-09-05T05:26:20.869Z,108.80
2018-09-05T05:27:20.901Z,109.60
2018-09-05T05:28:20.943Z,86.60
2018-09-05T05:29:20.984Z,106.60
2018-09-05T05:30:21.025Z,151.90
2018-09-05T05:31:21.064Z,177.20
2018-09-05T05:32:21.139Z,106.20
2018-09-05T05:33:21.145Z,196.60
2018-09-05T05:34:21.184Z,104.70
2018-09-05T05:35:21.225Z,96.00
2018-09-05T05:36:21.269Z,135.10
2018-09-05T05:37:21.305Z,100.90
2018-09-05T05:38:21.343Z,167.00
2018-09-05T05:39:21.386Z,94.50
2018-09-05T05:40:21.533Z,127.50
2018-09-05T05:41:21.690Z,69.90
2018-09-05T05:42:21.519Z,102.70
2018-09-05T05:43:21.549Z,103.80
2018-09-05T05:44:21.587Z,100.70
2018-09-05T05:45:21.628Z,182.50
2018-09-05T05:46:21.670Z,106.40
2018-09-05T05:47:21.712Z,104.20
2018-09-05T05:48:21.749Z,58.80
2018-09-05T05:49:21.789Z,57.10
2018-09-05T05:50:21.830Z,64.50
2018-09-05T05:51:21.868Z,47.80
2018-09-05T05:52:21.925Z,54.10
2018-09-05T05:53:21.951Z,45.70
2018-09-05T05:54:21.988Z,48.00
2018-09-05T05:55:22.081Z,40.70
2018-09-05T05:56:22.079Z,43.10
2018-09-05T05:57:22.112Z,41.70
2018-09-05T05:58:22.153Z,38.50
2018-09-05T05:59:22.193Z,36.30
2018-09-05T06:00:22.234Z,40.00
2018-09-05T06:01:22.281Z,37.90
2018-09-05T06:02:22.317Z,31.40
2018-09-05T06:03:22.355Z,34.10
2018-09-05T06:04:22.395Z,34.30
2018-09-05T06:05:22.435Z,32.90
2018-09-05T06:06:22.616Z,35.00
2018-09-05T06:07:22.516Z,32.30
2018-09-05T06:08:22.556Z,28.30
2018-09-05T06:09:22.598Z,31.60
2018-09-05T06:10:22.639Z,30.40
2018-09-05T06:11:22.679Z,29.80
2018-09-05T06:12:22.721Z,28.60
2018-09-05T06:13:22.763Z,25.20
2018-09-05T06:14:22.801Z,31.60
2018-09-05T06:15:22.857Z,32.10
2018-09-05T06:16:22.882Z,31.90
2018-09-05T06:17:22.925Z,42.30
2018-09-05T06:18:22.965Z,35.30
2018-09-05T06:19:23.004Z,38.80
2018-09-05T06:20:23.045Z,31.60
2018-09-05T06:21:23.088Z,32.70
2018-09-05T06:22:23.125Z,33.60
2018-09-05T06:23:23.166Z,33.70
2018-09-05T06:24:23.215Z,36.10
2018-09-05T06:25:23.250Z,36.00
2018-09-05T06:26:23.289Z,33.80
2018-09-05T06:27:23.331Z,36.70
2018-09-05T06:28:23.371Z,31.80
2018-09-05T06:29:23.411Z,31.20
2018-09-05T06:30:23.506Z,34.10
2018-09-05T06:31:23.585Z,31.60
2018-09-05T06:32:23.534Z,33.90
2018-09-05T06:33:23.576Z,35.60
2018-09-05T06:34:23.618Z,33.60
2018-09-05T06:35:23.657Z,33.40
2018-09-05T06:36:23.702Z,34.00
2018-09-05T06:37:23.745Z,35.90
2018-09-05T06:38:23.778Z,28.70
2018-09-05T06:39:23.820Z,30.60
2018-09-05T06:40:23.861Z,28.20
2018-09-05T06:41:23.905Z,27.20
2018-09-05T06:42:23.944Z,27.70
2018-09-05T06:43:23.982Z,29.40
2018-09-05T06:44:24.024Z,30.60
2018-09-05T06:45:24.118Z,28.00
2018-09-05T06:46:24.106Z,28.10
2018-09-05T06:47:24.145Z,27.30
2018-09-05T06:48:24.191Z,28.10
2018-09-05T06:49:24.228Z,25.10
2018-09-05T06:50:24.267Z,27.80
2018-09-05T06:51:24.322Z,25.10
2018-09-05T06:52:24.349Z,27.40
2018-09-05T06:53:24.390Z,27.20
2018-09-05T06:54:24.429Z,26.60
2018-09-05T06:55:24.488Z,24.50
2018-09-05T06:56:24.512Z,25.30
2018-09-05T06:57:24.556Z,25.10
2018-09-05T06:58:24.595Z,27.70
2018-09-05T06:59:24.635Z,25.00
2018-09-05T07:00:24.675Z,26.10
2018-09-05T07:01:24.716Z,24.80
2018-09-05T07:02:24.764Z,24.50
2018-09-05T07:03:24.813Z,23.40
2018-09-05T07:04:24.846Z,24.50
2018-09-05T07:05:24.882Z,24.70
2018-09-05T07:06:24.928Z,24.30
2018-09-05T07:07:24.961Z,24.60
2018-09-05T07:08:25.002Z,24.40
2018-09-05T07:09:25.044Z,24.50
2018-09-05T07:10:25.083Z,24.30
2018-09-05T07:11:25.125Z,22.60
2018-09-05T07:12:25.165Z,23.70
2018-09-05T07:13:25.215Z,22.30
2018-09-05T07:14:25.330Z,22.40
2018-09-05T07:15:25.289Z,23.70
2018-09-05T07:16:25.329Z,23.30
2018-09-05T07:17:25.435Z,23.40
2018-09-05T07:18:25.411Z,22.80
2018-09-05T07:19:25.473Z,24.50
2018-09-05T07:20:25.499Z,23.30
2018-09-05T07:21:25.703Z,23.30
2018-09-05T07:22:25.575Z,22.50
2018-09-05T07:23:25.614Z,22.60
2018-09-05T07:24:25.656Z,21.30
2018-09-05T07:25:25.696Z,21.40
2018-09-05T07:26:25.736Z,22.40
2018-09-05T07:27:25.833Z,21.40
2018-09-05T07:28:25.817Z,20.70
2018-09-05T07:29:25.864Z,20.80
2018-09-05T07:30:25.922Z,20.60
2018-09-05T07:31:25.941Z,19.20
2018-09-05T07:32:25.983Z,19.50
2018-09-05T07:33:26.024Z,19.40
2018-09-05T07:34:26.063Z,19.60
2018-09-05T07:35:26.128Z,18.60
2018-09-05T07:36:26.146Z,18.40
2018-09-05T07:37:26.195Z,19.20
2018-09-05T07:38:26.229Z,18.50
2018-09-05T07:39:26.269Z,19.50
2018-09-05T07:40:26.317Z,18.50
2018-09-05T07:41:26.351Z,19.30
2018-09-05T07:42:26.392Z,17.80
2018-09-05T07:43:26.444Z,17.30
2018-09-05T07:44:26.475Z,17.50
2018-09-05T07:45:26.517Z,17.60
2018-09-05T07:46:26.557Z,19.50
2018-09-05T07:47:26.596Z,17.60
2018-09-05T07:48:26.639Z,16.30
2018-09-05T07:49:26.680Z,18.10
2018-09-05T07:50:26.721Z,18.50
2018-09-05T07:51:26.771Z,16.30
2018-09-05T07:52:26.803Z,16.50
2018-09-05T07:53:26.868Z,18.20
2018-09-05T07:54:26.885Z,16.10
2018-09-05T07:55:26.932Z,15.50
2018-09-05T07:56:26.970Z,16.20
2018-09-05T07:57:27.084Z,16.90
2018-09-05T07:58:27.054Z,17.80
2018-09-05T07:59:27.094Z,16.50
2018-09-05T08:00:27.135Z,15.40
2018-09-05T08:01:27.178Z,15.60
2018-09-05T08:02:27.218Z,14.80
2018-09-05T08:03:27.260Z,16.30
2018-09-05T08:04:27.301Z,14.50
2018-09-05T08:05:27.351Z,14.10
2018-09-05T08:06:27.382Z,14.50
2018-09-05T08:07:27.426Z,14.40
2018-09-05T08:08:27.468Z,14.20
2018-09-05T08:09:27.508Z,16.00
2018-09-05T08:10:27.556Z,14.70
2018-09-05T08:11:27.594Z,14.30
2018-09-05T08:12:27.635Z,13.90
2018-09-05T08:13:27.675Z,14.80
2018-09-05T08:14:27.717Z,16.90
2018-09-05T08:15:27.759Z,14.30
2018-09-05T08:16:27.803Z,15.60
2018-09-05T08:17:27.844Z,14.70
2018-09-05T08:18:27.883Z,13.80
2018-09-05T08:19:27.927Z,13.30
2018-09-05T08:20:27.979Z,14.70
2018-09-05T08:21:28.017Z,14.70
2018-09-05T08:22:28.051Z,14.90
2018-09-05T08:23:28.095Z,15.30
2018-09-05T08:24:28.183Z,13.60
2018-09-05T08:25:28.179Z,13.30
2018-09-05T08:26:28.218Z,13.40
2018-09-05T08:27:28.263Z,12.40
2018-09-05T08:28:28.304Z,14.60
2018-09-05T08:29:28.345Z,13.90
2018-09-05T08:30:28.390Z,13.20
2018-09-05T08:31:28.428Z,12.40
2018-09-05T08:32:28.472Z,12.80
2018-09-05T08:33:28.515Z,13.80
2018-09-05T08:34:28.556Z,13.30
2018-09-05T08:35:29.024Z,13.70
2018-09-05T08:36:28.983Z,12.40
2018-09-05T08:37:29.036Z,12.90
2018-09-05T08:38:28.891Z,14.30
2018-09-05T08:39:28.769Z,13.30
2018-09-05T08:40:28.810Z,12.90
2018-09-05T08:41:29.005Z,14.10
2018-09-05T08:42:28.977Z,12.30
2018-09-05T08:43:28.965Z,13.30
2018-09-05T08:44:29.141Z,13.70
2018-09-05T08:45:29.383Z,13.40
2018-09-05T08:46:29.134Z,13.90
2018-09-05T08:47:29.158Z,12.40
2018-09-05T08:48:29.207Z,12.40
2018-09-05T08:49:29.190Z,12.80
2018-09-05T08:50:29.232Z,11.70
2018-09-05T08:51:29.278Z,12.00
2018-09-05T08:52:29.326Z,13.50
2018-09-05T08:53:29.361Z,14.70
2018-09-05T08:54:29.410Z,11.50
2018-09-05T08:55:29.446Z,11.10
2018-09-05T08:56:29.496Z,13.90
2018-09-05T08:57:29.531Z,12.40
2018-09-05T08:58:29.572Z,13.50
2018-09-05T08:59:29.616Z,11.50
2018-09-05T09:00:29.667Z,11.90
2018-09-05T09:01:29.702Z,10.60
2018-09-05T09:02:29.746Z,11.80
2018-09-05T09:03:29.787Z,13.70
2018-09-05T09:04:29.843Z,10.40
2018-09-05T09:05:29.877Z,12.00
2018-09-05T09:06:29.920Z,11.30
2018-09-05T09:07:29.958Z,12.40
2018-09-05T09:08:30.011Z,12.90
2018-09-05T09:09:30.046Z,11.70
2018-09-05T09:10:30.089Z,11.30
2018-09-05T09:11:30.147Z,10.30
2018-09-05T09:12:30.175Z,10.20
2018-09-05T09:13:30.217Z,13.10
2018-09-05T09:14:30.259Z,12.50
2018-09-05T09:15:30.302Z,12.70
2018-09-05T09:16:30.347Z,12.20
2018-09-05T09:17:30.391Z,11.50
2018-09-05T09:18:30.430Z,10.50
2018-09-05T09:19:30.473Z,11.40
2018-09-05T09:20:30.520Z,12.50
2018-09-05T09:21:30.560Z,13.40
2018-09-05T09:22:30.603Z,14.30
2018-09-05T09:23:30.644Z,10.50
2018-09-05T09:24:30.689Z,10.80
2018-09-05T09:25:30.736Z,12.10
2018-09-05T09:26:30.775Z,11.10
2018-09-05T09:27:30.818Z,12.40
2018-09-05T09:28:30.862Z,10.50
2018-09-05T09:29:30.907Z,10.80
2018-09-05T09:30:30.947Z,12.50
2018-09-05T09:31:30.991Z,9.50
2018-09-05T09:32:31.034Z,9.90
2018-09-05T09:33:31.075Z,12.50
2018-09-05T09:34:31.120Z,10.80
2018-09-05T09:35:31.271Z,10.90
2018-09-05T09:36:31.215Z,10.10
2018-09-05T09:37:31.250Z,12.80
2018-09-05T09:38:31.291Z,12.10
2018-09-05T09:39:31.337Z,12.90
2018-09-05T09:40:31.427Z,10.00
2018-09-05T09:41:31.430Z,10.00
2018-09-05T09:42:31.462Z,12.50
2018-09-05T09:43:31.507Z,11.90
2018-09-05T09:44:31.550Z,10.60
2018-09-05T09:45:31.592Z,11.40
2018-09-05T09:46:31.642Z,11.60
2018-09-05T09:47:31.681Z,10.30
2018-09-05T09:48:31.719Z,9.40
2018-09-05T09:49:31.763Z,11.00
2018-09-05T09:50:31.809Z,12.10
2018-09-05T09:51:31.848Z,10.60
2018-09-05T09:52:31.892Z,10.80
2018-09-05T09:53:31.934Z,10.50
2018-09-05T09:54:31.979Z,12.20
2018-09-05T09:55:32.021Z,10.30
2018-09-05T09:56:32.122Z,11.10
2018-09-05T09:57:32.108Z,10.90
2018-09-05T09:58:32.153Z,10.90
2018-09-05T09:59:32.198Z,11.30
2018-09-05T10:00:32.236Z,12.20
2018-09-05T10:01:32.281Z,10.70
2018-09-05T10:02:32.322Z,12.40
2018-09-05T10:03:32.507Z,11.00
2018-09-05T10:04:32.411Z,10.40
2018-09-05T10:05:32.463Z,10.40
2018-09-05T10:06:32.497Z,9.60
2018-09-05T10:07:32.541Z,11.20
2018-09-05T10:08:32.583Z,9.80
2018-09-05T10:09:32.670Z,10.80
2018-09-05T10:10:32.724Z,8.80
2018-09-05T10:11:32.712Z,11.20
2018-09-05T10:12:32.757Z,12.00
2018-09-05T10:13:32.801Z,9.90
2018-09-05T10:14:32.845Z,10.30
2018-09-05T10:15:32.885Z,11.30
2018-09-05T10:16:32.929Z,10.60
2018-09-05T10:17:32.972Z,9.90
2018-09-05T10:18:33.016Z,9.80
2018-09-05T10:19:33.059Z,10.00
2018-09-05T10:20:33.106Z,9.80
2018-09-05T10:21:33.149Z,10.60
2018-09-05T10:22:33.256Z,8.80
2018-09-05T10:23:33.234Z,10.30
2018-09-05T10:24:33.279Z,9.90
2018-09-05T10:25:33.322Z,9.60
2018-09-05T10:26:33.368Z,9.60
2018-09-05T10:27:33.409Z,10.60
2018-09-05T10:28:33.453Z,10.80
2018-09-05T10:29:33.500Z,9.10
2018-09-05T10:30:33.542Z,11.20
2018-09-05T10:31:33.611Z,9.90
2018-09-05T10:32:33.629Z,10.00
2018-09-05T10:33:33.672Z,9.40
2018-09-05T10:34:33.716Z,10.20
2018-09-05T10:35:33.759Z,10.10
2018-09-05T10:36:33.805Z,8.90
2018-09-05T10:37:33.856Z,8.70
2018-09-05T10:38:33.891Z,8.20
2018-09-05T10:39:33.934Z,9.40
2018-09-05T10:40:33.978Z,9.10
2018-09-05T10:41:34.023Z,8.10
2018-09-05T10:42:34.068Z,11.50
2018-09-05T10:43:34.109Z,9.40
2018-09-05T10:44:34.152Z,9.00
2018-09-05T10:45:34.199Z,8.30
2018-09-05T10:46:34.248Z,11.90
2018-09-05T10:47:34.284Z,10.90
2018-09-05T10:48:34.328Z,9.50
2018-09-05T10:49:34.373Z,8.70
2018-09-05T10:50:34.425Z,9.80
2018-09-05T10:51:34.460Z,8.40
2018-09-05T10:52:34.505Z,7.70
2018-09-05T10:53:34.549Z,9.10
2018-09-05T10:54:34.603Z,9.30
2018-09-05T10:55:34.634Z,9.20
2018-09-05T10:56:34.685Z,8.00
2018-09-05T10:57:34.731Z,8.20
2018-09-05T10:58:34.765Z,8.60
2018-09-05T10:59:34.814Z,8.70
2018-09-05T11:00:34.856Z,6.90
2018-09-05T11:01:34.901Z,8.50
2018-09-05T11:02:34.944Z,8.20
2018-09-05T11:03:34.986Z,9.50
2018-09-05T11:04:35.035Z,10.60
2018-09-05T11:05:35.076Z,8.10
2018-09-05T11:06:35.117Z,9.00
2018-09-05T11:07:35.162Z,10.20
2018-09-05T11:08:35.206Z,8.80
2018-09-05T11:09:35.250Z,9.10
2018-09-05T11:10:35.400Z,7.10
2018-09-05T11:11:35.345Z,9.30
2018-09-05T11:12:35.382Z,9.20
2018-09-05T11:13:35.427Z,9.10
2018-09-05T11:14:35.469Z,6.70
2018-09-05T11:15:35.514Z,9.40
2018-09-05T11:16:35.565Z,7.40
2018-09-05T11:17:35.600Z,8.80
2018-09-05T11:18:35.643Z,9.40
2018-09-05T11:19:35.701Z,8.60
2018-09-05T11:20:35.732Z,9.90
2018-09-05T11:21:35.776Z,9.80
2018-09-05T11:22:35.819Z,8.60
2018-09-05T11:23:35.869Z,9.70
2018-09-05T11:24:35.911Z,9.70
2018-09-05T11:25:35.953Z,7.50
2018-09-05T11:26:36.014Z,8.40
2018-09-05T11:27:36.102Z,7.80
2018-09-05T11:28:36.083Z,9.40
2018-09-05T11:29:36.135Z,9.80
2018-09-05T11:30:36.171Z,9.90
2018-09-05T11:31:36.214Z,9.60
2018-09-05T11:32:36.312Z,8.00
2018-09-05T11:33:36.312Z,9.00
2018-09-05T11:34:36.350Z,8.70
2018-09-05T11:35:36.390Z,9.90
2018-09-05T11:36:36.451Z,9.10
2018-09-05T11:37:36.480Z,8.50
2018-09-05T11:38:36.521Z,11.50
2018-09-05T11:39:36.566Z,8.80
2018-09-05T11:40:36.611Z,8.20
2018-09-05T11:41:36.656Z,11.60
2018-09-05T11:42:36.699Z,9.60
2018-09-05T11:43:36.746Z,8.60
2018-09-05T11:44:36.788Z,8.80
2018-09-05T11:45:36.833Z,9.00
2018-09-05T11:46:36.876Z,8.30
2018-09-05T11:47:36.921Z,9.10
2018-09-05T11:48:36.966Z,8.20
2018-09-05T11:49:37.009Z,8.70
2018-09-05T11:50:37.053Z,11.70
2018-09-05T11:51:37.098Z,9.60
2018-09-05T11:52:37.147Z,8.00
2018-09-05T11:53:37.187Z,9.10
2018-09-05T11:54:37.231Z,8.10
2018-09-05T11:55:37.288Z,8.90
2018-09-05T11:56:37.322Z,10.30
2018-09-05T11:57:37.367Z,10.90
2018-09-05T11:58:37.411Z,8.60
2018-09-05T11:59:37.455Z,10.10
2018-09-05T12:00:37.501Z,10.10
2018-09-05T12:01:37.544Z,8.30
2018-09-05T12:02:37.587Z,9.40
2018-09-05T12:03:37.633Z,7.80
2018-09-05T12:04:37.681Z,7.90
2018-09-05T12:05:37.722Z,7.80
2018-09-05T12:06:37.779Z,9.90
2018-09-05T12:07:37.809Z,10.40
2018-09-05T12:08:37.863Z,8.20
2018-09-05T12:09:37.899Z,9.50
2018-09-05T12:10:37.946Z,11.70
2018-09-05T12:11:38.013Z,8.20
2018-09-05T12:12:38.034Z,9.60
2018-09-05T12:13:38.122Z,11.30
2018-09-05T12:14:38.121Z,7.80
2018-09-05T12:15:38.167Z,9.30
2018-09-05T12:16:38.217Z,9.10
2018-09-05T12:17:38.264Z,8.40
2018-09-05T12:18:38.309Z,10.10
2018-09-05T12:19:38.348Z,8.60
2018-09-05T12:20:38.394Z,9.70
2018-09-05T12:21:38.437Z,9.10
2018-09-05T12:22:38.480Z,11.00
2018-09-05T12:23:38.539Z,8.70
2018-09-05T12:24:38.569Z,7.50
2018-09-05T12:25:38.617Z,9.50
2018-09-05T12:26:38.658Z,11.30
2018-09-05T12:27:38.753Z,8.80
2018-09-05T12:28:38.756Z,9.30
2018-09-05T12:29:38.792Z,8.20
2018-09-05T12:30:38.888Z,8.80
2018-09-05T12:31:38.881Z,8.90
2018-09-05T12:32:38.928Z,8.70
2018-09-05T12:33:38.972Z,8.90
2018-09-05T12:34:39.031Z,8.10
2018-09-05T12:35:39.063Z,8.50
2018-09-05T12:36:39.108Z,10.90
2018-09-05T12:37:39.154Z,10.40
2018-09-05T12:38:39.196Z,14.10
2018-09-05T12:39:39.242Z,8.30
2018-09-05T12:40:39.286Z,10.30
2018-09-05T12:41:39.332Z,8.70
2018-09-05T12:42:39.374Z,8.10
2018-09-05T12:43:39.420Z,8.00
2018-09-05T12:44:39.486Z,8.00
2018-09-05T12:45:39.511Z,9.60
2018-09-05T12:46:39.554Z,10.30
2018-09-05T12:47:39.601Z,8.00
2018-09-05T12:48:39.644Z,8.40
2018-09-05T12:49:39.697Z,9.30
2018-09-05T12:50:39.737Z,7.90
2018-09-05T12:51:39.780Z,14.60
2018-09-05T12:52:39.826Z,10.10